createdAt,value
2022-10-16T00:01:24.884Z,97981.00
2022-10-16T00:03:53.076Z,97984.38
2022-10-16T00:06:22.815Z,97986.41
2022-10-16T00:08:51.231Z,97979.59
2022-10-16T00:11:30.973Z,97979.69
2022-10-16T00:14:02.193Z,97988.63
2022-10-16T00:16:30.463Z,97983.00
2022-10-16T00:18:58.115Z,97988.31
2022-10-16T00:21:28.514Z,98001.31
2022-10-16T00:24:01.624Z,97988.50
2022-10-16T00:26:30.687Z,98000.16
2022-10-16T00:28:58.382Z,97997.16
2022-10-16T00:31:26.004Z,98002.94
2022-10-16T00:33:53.983Z,98001.09
2022-10-16T00:36:22.725Z,98005.38
2022-10-16T00:38:56.382Z,98009.09
2022-10-16T00:41:26.038Z,98017.00
2022-10-16T00:44:01.539Z,98017.63
2022-10-16T00:46:41.075Z,98015.03
2022-10-16T00:49:14.481Z,98024.63
2022-10-16T00:51:56.247Z,98028.06
2022-10-16T00:54:30.624Z,98036.00
2022-10-16T00:57:02.195Z,98025.06
2022-10-16T00:59:32.738Z,98029.56
2022-10-16T01:02:01.094Z,98034.13
2022-10-16T01:04:34.354Z,98029.91
2022-10-16T01:07:07.929Z,98036.13
2022-10-16T01:10:04.638Z,98035.47
2022-10-16T01:13:08.124Z,98041.03
2022-10-16T01:15:41.677Z,98032.59
2022-10-16T01:18:20.036Z,98032.78
2022-10-16T01:20:54.848Z,98030.53
2022-10-16T01:23:44.531Z,98037.59
2022-10-16T01:26:21.383Z,98048.13
2022-10-16T01:28:58.617Z,98037.84
2022-10-16T01:31:30.671Z,98035.31
2022-10-16T01:34:06.955Z,98037.25
2022-10-16T01:36:54.555Z,98043.56
2022-10-16T01:39:25.868Z,98034.66
2022-10-16T01:42:00.538Z,98030.09
2022-10-16T01:44:32.778Z,98044.00
2022-10-16T01:47:01.399Z,98042.16
2022-10-16T01:49:33.961Z,98037.09
2022-10-16T01:52:05.517Z,98053.59
2022-10-16T01:54:35.849Z,98040.63
2022-10-16T01:57:05.682Z,98047.84
2022-10-16T01:59:37.622Z,98041.91
2022-10-16T02:02:09.405Z,98044.41
2022-10-16T02:04:43.653Z,98047.28
2022-10-16T02:07:11.662Z,98039.56
2022-10-16T02:09:39.187Z,98050.81
2022-10-16T02:12:27.836Z,98042.22
2022-10-16T02:14:55.507Z,98043.72
2022-10-16T02:17:23.300Z,98051.63
2022-10-16T02:19:53.884Z,98052.66
2022-10-16T02:22:30.677Z,98058.84
2022-10-16T02:25:07.834Z,98054.63
2022-10-16T02:27:41.998Z,98053.94
2022-10-16T02:30:16.023Z,98055.81
2022-10-16T02:32:46.110Z,98058.47
2022-10-16T02:35:14.006Z,98060.41
2022-10-16T02:37:42.331Z,98045.72
2022-10-16T02:40:09.880Z,98059.50
2022-10-16T02:42:41.119Z,98066.66
2022-10-16T02:45:12.645Z,98061.66
2022-10-16T02:47:39.695Z,98069.31
2022-10-16T02:50:07.344Z,98069.47
2022-10-16T02:52:34.384Z,98063.66
2022-10-16T02:55:01.736Z,98073.16
2022-10-16T02:57:29.291Z,98067.66
2022-10-16T02:59:56.931Z,98071.03
2022-10-16T03:02:23.925Z,98082.22
2022-10-16T03:04:51.260Z,98077.94
2022-10-16T03:07:18.600Z,98079.78
2022-10-16T03:09:45.623Z,98084.13
2022-10-16T03:12:13.297Z,98069.69
2022-10-16T03:14:41.373Z,98084.81
2022-10-16T03:17:08.758Z,98083.25
2022-10-16T03:22:21.635Z,98091.22
2022-10-16T03:24:48.968Z,98089.00
2022-10-16T03:27:16.177Z,98085.47
2022-10-16T03:29:43.389Z,98084.69
2022-10-16T03:32:10.543Z,98080.41
2022-10-16T03:34:37.703Z,98082.41
2022-10-16T03:37:05.270Z,98092.75
2022-10-16T03:39:32.210Z,98089.59
2022-10-16T03:41:59.340Z,98087.91
2022-10-16T03:44:26.424Z,98088.91
2022-10-16T03:46:53.802Z,98101.88
2022-10-16T03:49:20.997Z,98097.88
2022-10-16T03:51:48.001Z,98102.03
2022-10-16T03:54:15.135Z,98092.72
2022-10-16T03:56:42.208Z,98108.31
2022-10-16T03:59:09.623Z,98109.22
2022-10-16T04:01:36.681Z,98090.38
2022-10-16T04:04:06.846Z,98102.50
2022-10-16T04:06:33.917Z,98099.25
2022-10-16T04:09:01.003Z,98097.88
2022-10-16T04:11:28.621Z,98108.13
2022-10-16T04:13:56.055Z,98101.41
2022-10-16T04:16:23.295Z,98092.81
2022-10-16T04:18:50.334Z,98101.69
2022-10-16T04:21:17.409Z,98099.22
2022-10-16T04:23:44.908Z,98099.88
2022-10-16T04:26:12.331Z,98105.13
2022-10-16T04:28:39.487Z,98082.22
2022-10-16T04:31:07.853Z,98110.44
2022-10-16T04:33:35.294Z,98103.53
2022-10-16T04:36:03.798Z,98108.91
2022-10-16T04:38:31.280Z,98115.78
2022-10-16T04:40:58.392Z,98114.25
2022-10-16T04:43:25.516Z,98115.22
2022-10-16T04:45:52.999Z,98124.50
2022-10-16T04:48:20.160Z,98131.53
2022-10-16T04:50:51.664Z,98121.44
2022-10-16T04:53:22.233Z,98137.44
2022-10-16T04:55:49.323Z,98137.22
2022-10-16T04:58:16.499Z,98140.75
2022-10-16T05:00:43.577Z,98136.47
2022-10-16T05:03:10.865Z,98129.56
2022-10-16T05:05:38.394Z,98132.94
2022-10-16T05:08:05.521Z,98132.78
2022-10-16T05:10:32.686Z,98136.31
2022-10-16T05:12:59.752Z,98132.00
2022-10-16T05:15:27.355Z,98124.88
2022-10-16T05:17:57.472Z,98129.25
2022-10-16T05:20:24.751Z,98143.75
2022-10-16T05:22:51.914Z,98148.03
2022-10-16T05:25:19.882Z,98151.34
2022-10-16T05:27:50.465Z,98153.88
2022-10-16T05:30:18.537Z,98157.19
2022-10-16T05:32:50.916Z,98157.78
2022-10-16T05:35:19.140Z,98164.66
2022-10-16T05:37:46.498Z,98155.63
2022-10-16T05:40:14.305Z,98160.41
2022-10-16T05:42:41.987Z,98166.06
2022-10-16T05:45:11.685Z,98171.88
2022-10-16T05:47:39.243Z,98167.16
2022-10-16T05:50:07.375Z,98176.19
2022-10-16T05:52:34.513Z,98171.81
2022-10-16T05:55:01.718Z,98170.81
2022-10-16T05:57:29.243Z,98179.78
2022-10-16T05:59:56.459Z,98175.09
2022-10-16T06:02:23.628Z,98183.34
2022-10-16T06:04:52.953Z,98177.53
2022-10-16T06:07:22.592Z,98182.53
2022-10-16T06:09:54.087Z,98185.00
2022-10-16T06:12:21.709Z,98189.97
2022-10-16T06:14:49.872Z,98179.97
2022-10-16T06:17:17.193Z,98183.81
2022-10-16T06:19:44.196Z,98179.09
2022-10-16T06:22:11.456Z,98192.66
2022-10-16T06:24:38.575Z,98192.66
2022-10-16T06:27:06.382Z,98192.50
2022-10-16T06:29:33.677Z,98191.84
2022-10-16T06:32:01.046Z,98192.00
2022-10-16T06:34:27.984Z,98199.47
2022-10-16T06:36:54.965Z,98208.16
2022-10-16T06:39:22.250Z,98204.91
2022-10-16T06:41:50.267Z,98213.56
2022-10-16T06:44:17.376Z,98222.59
2022-10-16T06:46:44.678Z,98215.16
2022-10-16T06:49:11.940Z,98207.47
2022-10-16T06:51:43.434Z,98219.59
2022-10-16T06:54:11.313Z,98213.25
2022-10-16T06:56:39.143Z,98220.56
2022-10-16T06:59:06.526Z,98212.03
2022-10-16T07:01:34.694Z,98219.84
2022-10-16T07:04:03.217Z,98220.38
2022-10-16T07:06:34.155Z,98216.81
2022-10-16T07:09:03.380Z,98220.09
2022-10-16T07:11:30.404Z,98223.56
2022-10-16T07:13:57.373Z,98230.81
2022-10-16T07:16:30.027Z,98227.34
2022-10-16T07:19:01.593Z,98224.09
2022-10-16T07:21:32.151Z,98225.06
2022-10-16T07:24:02.637Z,98219.53
2022-10-16T07:26:32.549Z,98227.56
2022-10-16T07:29:00.017Z,98221.66
2022-10-16T07:31:28.066Z,98221.09
2022-10-16T07:33:59.224Z,98215.75
2022-10-16T07:36:26.434Z,98216.59
2022-10-16T07:38:57.211Z,98225.88
2022-10-16T07:41:28.297Z,98216.91
2022-10-16T07:43:56.251Z,98220.63
2022-10-16T07:46:24.521Z,98220.16
2022-10-16T07:48:52.200Z,98220.94
2022-10-16T07:51:21.630Z,98221.53
2022-10-16T07:53:48.925Z,98220.47
2022-10-16T07:56:17.479Z,98213.56
2022-10-16T07:58:45.425Z,98213.03
2022-10-16T08:01:17.368Z,98219.88
2022-10-16T08:03:49.050Z,98208.88
2022-10-16T08:06:16.740Z,98209.03
2022-10-16T08:08:44.106Z,98204.56
2022-10-16T08:11:11.826Z,98206.09
2022-10-16T08:13:38.951Z,98206.63
2022-10-16T08:16:08.994Z,98204.41
2022-10-16T08:18:38.302Z,98212.50
2022-10-16T08:21:06.687Z,98210.50
2022-10-16T08:23:34.760Z,98212.16
2022-10-16T08:26:09.329Z,98205.13
2022-10-16T08:28:37.265Z,98210.28
2022-10-16T08:31:09.320Z,98204.53
2022-10-16T08:33:36.849Z,98209.41
2022-10-16T08:36:06.127Z,98203.00
2022-10-16T08:38:34.044Z,98207.19
2022-10-16T08:41:17.179Z,98207.19
2022-10-16T08:44:18.248Z,98210.94
2022-10-16T08:47:12.990Z,98206.31
2022-10-16T08:49:43.435Z,98200.94
2022-10-16T08:52:15.327Z,98204.56
2022-10-16T08:54:51.288Z,98207.94
2022-10-16T08:57:24.679Z,98205.09
2022-10-16T08:59:52.841Z,98207.66
2022-10-16T09:02:32.010Z,98212.88
2022-10-16T09:05:23.952Z,98210.31
2022-10-16T09:08:07.815Z,98211.06
2022-10-16T09:10:55.898Z,98214.34
2022-10-16T09:13:43.459Z,98211.13
2022-10-16T09:16:16.445Z,98212.81
2022-10-16T09:19:05.465Z,98212.81
2022-10-16T09:21:37.485Z,98211.97
2022-10-16T09:24:17.696Z,98218.94
2022-10-16T09:26:45.630Z,98203.06
2022-10-16T09:29:14.703Z,98206.00
2022-10-16T09:31:42.900Z,98202.00
2022-10-16T09:34:37.351Z,98204.38
2022-10-16T09:37:14.283Z,98213.34
2022-10-16T09:39:50.165Z,98208.03
2022-10-16T09:42:32.667Z,98211.44
2022-10-16T09:45:00.120Z,98199.97
2022-10-16T09:47:29.663Z,98201.75
2022-10-16T09:50:07.401Z,98202.78
2022-10-16T09:52:34.824Z,98193.16
2022-10-16T09:55:13.966Z,98201.91
2022-10-16T09:57:56.650Z,98199.91
2022-10-16T10:00:25.523Z,98193.47
2022-10-16T10:05:28.660Z,98195.47
2022-10-16T10:08:01.212Z,98187.22
2022-10-16T10:10:30.819Z,98188.97
2022-10-16T10:12:58.642Z,98186.91
2022-10-16T10:15:26.222Z,98183.06
2022-10-16T10:17:54.207Z,98179.97
2022-10-16T10:20:26.607Z,98168.19
2022-10-16T10:22:53.912Z,98169.47
2022-10-16T10:25:52.605Z,98168.50
2022-10-16T10:28:30.967Z,98167.88
2022-10-16T10:31:02.349Z,98164.94
2022-10-16T10:33:44.956Z,98168.28
2022-10-16T10:36:26.984Z,98160.69
2022-10-16T10:39:04.308Z,98156.59
2022-10-16T10:41:43.569Z,98159.13
2022-10-16T10:44:38.488Z,98158.44
2022-10-16T10:47:34.536Z,98150.47
2022-10-16T10:50:27.753Z,98164.13
2022-10-16T10:53:05.427Z,98157.97
2022-10-16T10:55:40.859Z,98158.28
2022-10-16T10:58:16.329Z,98144.47
2022-10-16T11:00:56.257Z,98151.50
2022-10-16T11:03:35.390Z,98152.19
2022-10-16T11:06:11.685Z,98149.41
2022-10-16T11:09:06.233Z,98145.56
2022-10-16T11:11:53.203Z,98149.28
2022-10-16T11:14:35.986Z,98148.56
2022-10-16T11:17:14.347Z,98135.09
2022-10-16T11:19:52.726Z,98142.03
2022-10-16T11:22:27.815Z,98146.59
2022-10-16T11:25:01.909Z,98143.09
2022-10-16T11:27:43.775Z,98145.16
2022-10-16T11:30:23.049Z,98146.28
2022-10-16T11:33:06.287Z,98138.16
2022-10-16T11:36:01.511Z,98146.34
2022-10-16T11:38:55.196Z,98142.28
2022-10-16T11:42:01.020Z,98137.84
2022-10-16T11:44:37.548Z,98147.59
2022-10-16T11:50:33.138Z,98128.66
2022-10-16T11:53:15.283Z,98131.34
2022-10-16T11:55:46.877Z,98131.16
2022-10-16T11:58:29.317Z,98136.31
2022-10-16T12:01:12.006Z,98137.81
2022-10-16T12:04:00.806Z,98124.00
2022-10-16T12:06:37.383Z,98146.63
2022-10-16T12:09:05.246Z,98146.69
2022-10-16T12:11:34.068Z,98149.50
2022-10-16T12:14:13.457Z,98144.66
2022-10-16T12:16:52.999Z,98152.44
2022-10-16T12:19:20.923Z,98149.53
2022-10-16T12:21:49.465Z,98151.81
2022-10-16T12:24:39.832Z,98149.31
2022-10-16T12:27:20.990Z,98149.53
2022-10-16T12:29:48.494Z,98138.88
2022-10-16T12:32:46.272Z,98148.25
2022-10-16T12:35:29.716Z,98143.50
2022-10-16T12:38:07.782Z,98149.69
2022-10-16T12:40:38.291Z,98148.31
2022-10-16T12:43:29.902Z,98151.81
2022-10-16T12:46:22.150Z,98156.31
2022-10-16T12:49:06.128Z,98159.50
2022-10-16T12:51:33.719Z,98158.06
2022-10-16T12:54:14.280Z,98157.81
2022-10-16T12:57:19.077Z,98165.66
2022-10-16T13:00:09.175Z,98163.44
2022-10-16T13:03:13.445Z,98160.88
2022-10-16T13:06:17.986Z,98156.56
2022-10-16T13:09:07.291Z,98161.34
2022-10-16T13:12:16.344Z,98153.69
2022-10-16T13:15:22.202Z,98164.31
2022-10-16T13:17:51.779Z,98170.63
2022-10-16T13:20:23.772Z,98173.97
2022-10-16T13:23:18.551Z,98163.78
2022-10-16T13:26:10.069Z,98172.22
2022-10-16T13:28:40.013Z,98178.06
2022-10-16T13:31:22.444Z,98178.50
2022-10-16T13:33:55.930Z,98179.78
2022-10-16T13:36:31.025Z,98170.16
2022-10-16T13:39:23.770Z,98176.69
2022-10-16T13:42:16.143Z,98177.97
2022-10-16T13:44:54.240Z,98186.63
2022-10-16T13:47:25.128Z,98191.56
2022-10-16T13:50:03.125Z,98189.66
2022-10-16T13:52:30.329Z,98189.97
2022-10-16T13:55:00.937Z,98188.22
2022-10-16T13:57:29.359Z,98189.13
2022-10-16T13:59:56.494Z,98199.03
2022-10-16T14:02:39.247Z,98185.75
2022-10-16T14:05:11.599Z,98198.19
2022-10-16T14:07:39.487Z,98189.91
2022-10-16T14:10:21.667Z,98196.59
2022-10-16T14:13:06.419Z,98198.69
2022-10-16T14:15:35.925Z,98194.69
2022-10-16T14:18:03.927Z,98196.66
2022-10-16T14:20:35.917Z,98201.81
2022-10-16T14:23:06.311Z,98209.50
2022-10-16T14:25:35.385Z,98198.50
2022-10-16T14:28:21.036Z,98203.22
2022-10-16T14:31:03.320Z,98219.28
2022-10-16T14:33:35.860Z,98207.03
2022-10-16T14:36:12.094Z,98226.59
2022-10-16T14:38:41.369Z,98230.81
2022-10-16T14:41:09.150Z,98220.78
2022-10-16T14:43:42.746Z,98229.59
2022-10-16T14:49:01.907Z,98223.31
2022-10-16T14:51:28.987Z,98222.38
2022-10-16T14:53:59.970Z,98225.44
2022-10-16T14:56:33.356Z,98229.50
2022-10-16T14:59:02.224Z,98227.28
2022-10-16T15:01:29.279Z,98228.16
2022-10-16T15:03:56.921Z,98234.41
2022-10-16T15:06:23.839Z,98236.72
2022-10-16T15:08:50.878Z,98236.03
2022-10-16T15:11:20.440Z,98237.25
2022-10-16T15:13:48.332Z,98237.06
2022-10-16T15:16:17.881Z,98244.44
2022-10-16T15:18:45.594Z,98250.25
2022-10-16T15:21:26.112Z,98250.03
2022-10-16T15:23:53.555Z,98262.03
2022-10-16T15:26:20.916Z,98254.56
2022-10-16T15:28:48.156Z,98259.31
2022-10-16T15:31:15.414Z,98262.03
2022-10-16T15:33:42.746Z,98264.16
2022-10-16T15:36:09.925Z,98261.91
2022-10-16T15:38:39.712Z,98275.78
2022-10-16T15:41:07.439Z,98277.63
2022-10-16T15:43:34.883Z,98282.09
2022-10-16T15:46:11.084Z,98291.50
2022-10-16T15:48:38.688Z,98286.53
2022-10-16T15:51:07.975Z,98291.44
2022-10-16T15:53:38.494Z,98295.88
2022-10-16T15:56:07.082Z,98302.72
2022-10-16T15:58:34.546Z,98306.03
2022-10-16T16:01:03.205Z,98314.91
2022-10-16T16:05:59.596Z,98320.94
2022-10-16T16:08:26.543Z,98327.75
2022-10-16T16:11:08.846Z,98324.34
2022-10-16T16:13:38.674Z,98325.00
2022-10-16T16:16:15.046Z,98324.94
2022-10-16T16:18:43.239Z,98333.41
2022-10-16T16:21:13.486Z,98340.41
2022-10-16T16:23:40.856Z,98344.94
2022-10-16T16:26:33.657Z,98349.31
2022-10-16T16:29:01.034Z,98353.72
2022-10-16T16:31:30.072Z,98361.94
2022-10-16T16:33:58.258Z,98356.59
2022-10-16T16:36:26.429Z,98352.94
2022-10-16T16:38:53.732Z,98368.47
2022-10-16T16:41:24.880Z,98375.09
2022-10-16T16:43:52.587Z,98368.69
2022-10-16T16:46:20.539Z,98382.88
2022-10-16T16:48:47.714Z,98380.69
2022-10-16T16:51:19.338Z,98383.59
2022-10-16T16:53:51.437Z,98383.25
2022-10-16T16:56:19.936Z,98375.78
2022-10-16T16:58:48.257Z,98384.06
2022-10-16T17:01:19.822Z,98374.06
2022-10-16T17:03:51.305Z,98396.97
2022-10-16T17:06:21.609Z,98396.97
2022-10-16T17:08:49.920Z,98399.88
2022-10-16T17:11:23.861Z,98401.13
2022-10-16T17:13:56.585Z,98405.91
2022-10-16T17:16:31.001Z,98395.91
2022-10-16T17:19:01.762Z,98407.56
2022-10-16T17:21:30.874Z,98407.94
2022-10-16T17:23:58.147Z,98411.69
2022-10-16T17:26:25.264Z,98410.38
2022-10-16T17:28:54.611Z,98411.41
2022-10-16T17:31:25.242Z,98404.84
2022-10-16T17:33:52.674Z,98422.47
2022-10-16T17:36:21.188Z,98424.53
2022-10-16T17:38:48.987Z,98417.78
2022-10-16T17:41:22.350Z,98423.44
2022-10-16T17:43:50.514Z,98418.00
2022-10-16T17:46:20.918Z,98421.19
2022-10-16T17:48:50.234Z,98429.59
2022-10-16T17:51:23.805Z,98425.47
2022-10-16T17:53:53.153Z,98428.50
2022-10-16T17:56:20.683Z,98425.69
2022-10-16T17:58:52.832Z,98421.75
2022-10-16T18:01:25.926Z,98434.84
2022-10-16T18:04:05.151Z,98436.88
2022-10-16T18:06:32.774Z,98428.63
2022-10-16T18:09:00.770Z,98436.09
2022-10-16T18:11:27.771Z,98449.38
2022-10-16T18:13:57.260Z,98443.75
2022-10-16T18:16:26.238Z,98449.34
2022-10-16T18:18:54.688Z,98449.69
2022-10-16T18:21:22.380Z,98453.16
2022-10-16T18:23:51.895Z,98448.28
2022-10-16T18:26:21.391Z,98460.16
2022-10-16T18:28:49.081Z,98466.63
2022-10-16T18:31:17.915Z,98469.41
2022-10-16T18:33:50.842Z,98470.50
2022-10-16T18:36:24.014Z,98476.84
2022-10-16T18:38:52.160Z,98475.78
2022-10-16T18:41:19.433Z,98487.16
2022-10-16T18:43:46.904Z,98474.44
2022-10-16T18:46:20.693Z,98489.25
2022-10-16T18:48:48.631Z,98490.31
2022-10-16T18:51:22.622Z,98485.41
2022-10-16T18:53:52.501Z,98496.81
2022-10-16T18:56:22.357Z,98492.91
2022-10-16T18:58:51.277Z,98496.56
2022-10-16T19:01:22.021Z,98497.38
2022-10-16T19:03:53.787Z,98507.00
2022-10-16T19:06:21.316Z,98495.03
2022-10-16T19:08:48.472Z,98519.47
2022-10-16T19:11:18.664Z,98516.44
2022-10-16T19:13:48.324Z,98500.66
2022-10-16T19:16:21.243Z,98513.88
2022-10-16T19:18:53.881Z,98515.75
2022-10-16T19:21:23.379Z,98514.38
2022-10-16T19:23:58.239Z,98511.00
2022-10-16T19:26:26.633Z,98519.47
2022-10-16T19:28:59.005Z,98519.47
2022-10-16T19:31:27.786Z,98522.22
2022-10-16T19:33:57.349Z,98531.06
2022-10-16T19:36:28.134Z,98527.75
2022-10-16T19:39:09.513Z,98536.59
2022-10-16T19:41:38.936Z,98535.84
2022-10-16T20:06:59.256Z,98553.13
2022-10-16T20:13:26.879Z,98561.75
2022-10-16T20:20:51.985Z,98560.47
2022-10-16T20:26:06.420Z,98519.88
2022-10-16T20:36:34.941Z,98560.19
2022-10-16T20:39:07.185Z,98524.13
2022-10-16T20:42:00.302Z,98570.09
2022-10-16T20:51:37.597Z,98532.47
2022-10-16T20:54:30.697Z,98566.47
2022-10-16T20:57:18.839Z,98563.94
2022-10-16T20:59:51.922Z,98577.88
2022-10-16T21:06:47.197Z,98580.16
2022-10-16T21:09:34.139Z,98579.44
2022-10-16T21:23:21.264Z,98572.84
2022-10-16T21:26:35.861Z,98590.91
2022-10-16T21:51:58.801Z,98602.31
2022-10-16T21:54:26.603Z,98613.00
2022-10-16T21:56:59.566Z,98605.44
2022-10-16T21:59:41.409Z,98611.31
2022-10-16T22:02:11.491Z,98617.50
2022-10-16T22:04:44.736Z,98616.22
2022-10-16T22:07:12.354Z,98608.75
2022-10-16T22:09:40.644Z,98602.91
2022-10-16T22:12:10.968Z,98605.75
2022-10-16T22:14:40.572Z,98600.53
2022-10-16T22:17:08.356Z,98602.50
2022-10-16T22:19:36.162Z,98603.41
2022-10-16T22:22:06.934Z,98603.56
2022-10-16T22:24:37.914Z,98614.69
2022-10-16T22:27:05.468Z,98605.25
2022-10-16T22:29:34.366Z,98607.19
2022-10-16T22:32:06.393Z,98619.19
2022-10-16T22:34:37.555Z,98618.53
2022-10-16T22:37:04.955Z,98620.09
2022-10-16T22:39:41.138Z,98620.09
2022-10-16T22:42:10.098Z,98629.66
2022-10-16T22:44:38.140Z,98625.56
2022-10-16T22:47:05.413Z,98634.16
2022-10-16T22:49:33.604Z,98630.13
2022-10-16T22:52:01.545Z,98634.41
2022-10-16T22:54:32.125Z,98632.69
2022-10-16T22:56:59.688Z,98640.66
2022-10-16T22:59:30.298Z,98636.44
2022-10-16T23:01:57.811Z,98641.72
2022-10-16T23:04:25.667Z,98640.88
2022-10-16T23:06:53.208Z,98641.59
2022-10-16T23:09:23.056Z,98643.53
2022-10-16T23:11:50.981Z,98640.13
2022-10-16T23:14:22.999Z,98648.91
2022-10-16T23:16:51.080Z,98648.19
2022-10-16T23:19:18.210Z,98654.44
2022-10-16T23:21:49.343Z,98661.69
2022-10-16T23:24:17.151Z,98654.72
2022-10-16T23:26:44.413Z,98654.72
2022-10-16T23:29:12.144Z,98666.03
2022-10-16T23:31:43.074Z,98660.16
2022-10-16T23:34:12.547Z,98669.75
2022-10-16T23:36:45.316Z,98674.09
2022-10-16T23:39:12.889Z,98673.31
2022-10-16T23:41:43.372Z,98666.63
2022-10-16T23:44:13.900Z,98683.06
2022-10-16T23:46:42.136Z,98671.91
2022-10-16T23:49:10.260Z,98676.13
2022-10-16T23:51:37.730Z,98674.44
2022-10-16T23:54:05.303Z,98671.25
2022-10-16T23:56:32.903Z,98674.94
2022-10-16T23:59:03.586Z,98671.53
